sensor_id;sensor_type;location;lat;lon;timestamp;pressure;altitude;pressure_sealevel;temperature;humidity
57562;BME280;43397;51.530;5.974;2023-02-04T00:00:44;102800.66;;;13.68;69.90
57562;BME280;43397;51.530;5.974;2023-02-04T00:03:09;102800.16;;;13.28;70.36
57562;BME280;43397;51.530;5.974;2023-02-04T00:05:35;102795.09;;;13.49;70.97
57562;BME280;43397;51.530;5.974;2023-02-04T00:08:01;102792.81;;;13.08;72.33
57562;BME280;43397;51.530;5.974;2023-02-04T00:10:26;102791.22;;;13.26;72.17
57562;BME280;43397;51.530;5.974;2023-02-04T00:12:52;102791.09;;;13.12;72.45
57562;BME280;43397;51.530;5.974;2023-02-04T00:15:18;102790.28;;;13.21;71.87
57562;BME280;43397;51.530;5.974;2023-02-04T00:17:45;102790.84;;;13.68;70.38
57562;BME280;43397;51.530;5.974;2023-02-04T00:20:11;102802.66;;;13.12;72.11
57562;BME280;43397;51.530;5.974;2023-02-04T00:22:37;102801.59;;;13.73;70.55
57562;BME280;43397;51.530;5.974;2023-02-04T00:25:03;102797.06;;;13.66;70.82
57562;BME280;43397;51.530;5.974;2023-02-04T00:27:29;102811.56;;;13.11;72.91
57562;BME280;43397;51.530;5.974;2023-02-04T00:29:55;102822.75;;;12.84;73.99
57562;BME280;43397;51.530;5.974;2023-02-04T00:32:21;102815.47;;;13.38;72.50
57562;BME280;43397;51.530;5.974;2023-02-04T00:34:48;102820.94;;;12.82;74.64
57562;BME280;43397;51.530;5.974;2023-02-04T00:37:15;102816.41;;;13.43;72.73
57562;BME280;43397;51.530;5.974;2023-02-04T00:39:40;102820.03;;;13.48;71.92
57562;BME280;43397;51.530;5.974;2023-02-04T00:42:06;102820.59;;;13.26;72.33
57562;BME280;43397;51.530;5.974;2023-02-04T00:44:32;102823.50;;;13.40;72.52
57562;BME280;43397;51.530;5.974;2023-02-04T00:46:58;102824.94;;;13.16;73.06
57562;BME280;43397;51.530;5.974;2023-02-04T00:49:24;102817.38;;;13.51;71.76
57562;BME280;43397;51.530;5.974;2023-02-04T00:51:51;102822.38;;;13.24;73.26
57562;BME280;43397;51.530;5.974;2023-02-04T00:54:16;102827.22;;;13.52;72.40
57562;BME280;43397;51.530;5.974;2023-02-04T00:56:42;102829.66;;;13.34;72.83
57562;BME280;43397;51.530;5.974;2023-02-04T00:59:08;102833.16;;;13.28;73.02
57562;BME280;43397;51.530;5.974;2023-02-04T01:01:34;102840.94;;;13.14;73.28
57562;BME280;43397;51.530;5.974;2023-02-04T01:03:59;102838.78;;;12.86;74.60
57562;BME280;43397;51.530;5.974;2023-02-04T01:06:25;102844.34;;;13.03;73.95
57562;BME280;43397;51.530;5.974;2023-02-04T01:08:53;102844.88;;;13.40;73.10
57562;BME280;43397;51.530;5.974;2023-02-04T01:11:19;102841.97;;;13.24;72.77
57562;BME280;43397;51.530;5.974;2023-02-04T01:13:44;102848.38;;;13.35;72.97
57562;BME280;43397;51.530;5.974;2023-02-04T01:16:10;102852.44;;;13.07;74.24
57562;BME280;43397;51.530;5.974;2023-02-04T01:18:36;102859.66;;;12.55;75.63
57562;BME280;43397;51.530;5.974;2023-02-04T01:21:02;102855.84;;;12.97;74.79
57562;BME280;43397;51.530;5.974;2023-02-04T01:23:28;102851.63;;;13.14;73.57
57562;BME280;43397;51.530;5.974;2023-02-04T01:25:55;102861.69;;;13.31;72.63
57562;BME280;43397;51.530;5.974;2023-02-04T01:28:21;102860.63;;;13.23;72.61
57562;BME280;43397;51.530;5.974;2023-02-04T01:30:47;102866.22;;;12.77;74.04
57562;BME280;43397;51.530;5.974;2023-02-04T01:33:12;102871.41;;;12.66;74.75
57562;BME280;43397;51.530;5.974;2023-02-04T01:35:38;102878.22;;;12.47;75.63
57562;BME280;43397;51.530;5.974;2023-02-04T01:38:04;102878.38;;;12.58;74.66
57562;BME280;43397;51.530;5.974;2023-02-04T01:40:30;102884.09;;;12.28;75.46
57562;BME280;43397;51.530;5.974;2023-02-04T01:42:57;102884.09;;;12.26;76.20
57562;BME280;43397;51.530;5.974;2023-02-04T01:45:23;102879.06;;;12.45;75.11
57562;BME280;43397;51.530;5.974;2023-02-04T01:47:50;102882.00;;;12.10;75.96
57562;BME280;43397;51.530;5.974;2023-02-04T01:50:16;102884.75;;;12.14;76.19
57562;BME280;43397;51.530;5.974;2023-02-04T01:52:43;102886.56;;;12.16;76.36
57562;BME280;43397;51.530;5.974;2023-02-04T01:55:12;102882.94;;;12.12;76.23
57562;BME280;43397;51.530;5.974;2023-02-04T01:57:38;102890.66;;;11.97;76.99
57562;BME280;43397;51.530;5.974;2023-02-04T02:00:13;102897.06;;;11.62;78.85
57562;BME280;43397;51.530;5.974;2023-02-04T02:02:42;102893.88;;;11.80;77.76
57562;BME280;43397;51.530;5.974;2023-02-04T02:05:11;102895.44;;;11.70;78.44
57562;BME280;43397;51.530;5.974;2023-02-04T02:07:37;102902.50;;;11.68;77.96
57562;BME280;43397;51.530;5.974;2023-02-04T02:10:04;102902.34;;;11.59;78.25
57562;BME280;43397;51.530;5.974;2023-02-04T02:12:30;102905.03;;;11.61;78.21
57562;BME280;43397;51.530;5.974;2023-02-04T02:14:56;102907.28;;;11.85;76.56
57562;BME280;43397;51.530;5.974;2023-02-04T02:17:25;102904.13;;;11.60;77.48
57562;BME280;43397;51.530;5.974;2023-02-04T02:19:50;102907.56;;;11.55;78.26
57562;BME280;43397;51.530;5.974;2023-02-04T02:22:21;102912.38;;;11.31;79.60
57562;BME280;43397;51.530;5.974;2023-02-04T02:24:50;102917.03;;;11.84;77.63
57562;BME280;43397;51.530;5.974;2023-02-04T02:27:16;102917.84;;;11.80;77.62
57562;BME280;43397;51.530;5.974;2023-02-04T02:29:42;102925.25;;;11.93;77.50
57562;BME280;43397;51.530;5.974;2023-02-04T02:32:09;102926.75;;;11.82;78.45
57562;BME280;43397;51.530;5.974;2023-02-04T02:34:36;102928.25;;;12.12;78.22
57562;BME280;43397;51.530;5.974;2023-02-04T02:37:03;102926.88;;;12.32;77.16
57562;BME280;43397;51.530;5.974;2023-02-04T02:39:30;102932.81;;;12.19;77.69
57562;BME280;43397;51.530;5.974;2023-02-04T02:41:58;102940.97;;;12.27;77.97
57562;BME280;43397;51.530;5.974;2023-02-04T02:44:24;102941.44;;;12.04;79.09
57562;BME280;43397;51.530;5.974;2023-02-04T02:46:51;102933.25;;;12.42;78.09
57562;BME280;43397;51.530;5.974;2023-02-04T02:49:18;102935.53;;;12.72;76.41
57562;BME280;43397;51.530;5.974;2023-02-04T02:51:45;102937.91;;;12.55;77.47
57562;BME280;43397;51.530;5.974;2023-02-04T02:54:18;102933.22;;;12.41;77.77
57562;BME280;43397;51.530;5.974;2023-02-04T02:56:46;102929.13;;;12.11;79.17
57562;BME280;43397;51.530;5.974;2023-02-04T02:59:13;102925.97;;;12.33;79.05
57562;BME280;43397;51.530;5.974;2023-02-04T03:01:39;102931.94;;;12.19;78.88
57562;BME280;43397;51.530;5.974;2023-02-04T03:04:05;102925.63;;;12.13;79.05
57562;BME280;43397;51.530;5.974;2023-02-04T03:06:31;102937.09;;;12.09;79.53
57562;BME280;43397;51.530;5.974;2023-02-04T03:08:57;102932.78;;;11.73;81.09
57562;BME280;43397;51.530;5.974;2023-02-04T03:11:23;102934.25;;;12.00;80.26
57562;BME280;43397;51.530;5.974;2023-02-04T03:13:49;102931.63;;;12.50;77.48
57562;BME280;43397;51.530;5.974;2023-02-04T03:16:17;102936.69;;;12.37;78.08
57562;BME280;43397;51.530;5.974;2023-02-04T03:18:42;102939.72;;;12.06;79.31
57562;BME280;43397;51.530;5.974;2023-02-04T03:21:08;102946.84;;;12.07;79.95
57562;BME280;43397;51.530;5.974;2023-02-04T03:23:35;102944.34;;;12.17;80.10
57562;BME280;43397;51.530;5.974;2023-02-04T03:26:01;102945.84;;;12.02;79.99
57562;BME280;43397;51.530;5.974;2023-02-04T03:28:29;102943.03;;;11.94;80.91
57562;BME280;43397;51.530;5.974;2023-02-04T03:30:55;102950.66;;;12.22;79.51
57562;BME280;43397;51.530;5.974;2023-02-04T03:33:23;102943.59;;;12.24;79.09
57562;BME280;43397;51.530;5.974;2023-02-04T03:35:49;102949.41;;;12.50;77.93
57562;BME280;43397;51.530;5.974;2023-02-04T03:38:14;102951.47;;;12.18;79.01
57562;BME280;43397;51.530;5.974;2023-02-04T03:40:40;102958.13;;;12.41;77.33
57562;BME280;43397;51.530;5.974;2023-02-04T03:43:06;102952.06;;;12.51;76.85
57562;BME280;43397;51.530;5.974;2023-02-04T03:45:31;102955.00;;;12.65;74.88
57562;BME280;43397;51.530;5.974;2023-02-04T03:47:57;102960.16;;;12.54;74.86
57562;BME280;43397;51.530;5.974;2023-02-04T03:50:24;102968.59;;;12.32;75.85
57562;BME280;43397;51.530;5.974;2023-02-04T03:52:50;102969.41;;;12.28;75.84
57562;BME280;43397;51.530;5.974;2023-02-04T03:55:15;102964.97;;;12.27;75.65
57562;BME280;43397;51.530;5.974;2023-02-04T03:57:41;102970.94;;;12.13;76.11
57562;BME280;43397;51.530;5.974;2023-02-04T04:00:08;102979.22;;;12.29;75.81
57562;BME280;43397;51.530;5.974;2023-02-04T04:02:34;102969.41;;;12.28;75.94
57562;BME280;43397;51.530;5.974;2023-02-04T04:04:59;102977.94;;;12.08;76.43
57562;BME280;43397;51.530;5.974;2023-02-04T04:07:26;102980.41;;;11.99;76.94
57562;BME280;43397;51.530;5.974;2023-02-04T04:09:52;102972.47;;;12.01;76.71
57562;BME280;43397;51.530;5.974;2023-02-04T04:12:18;102968.81;;;11.96;76.88
57562;BME280;43397;51.530;5.974;2023-02-04T04:14:43;102972.34;;;11.94;77.32
57562;BME280;43397;51.530;5.974;2023-02-04T04:17:09;102977.78;;;12.01;76.54
57562;BME280;43397;51.530;5.974;2023-02-04T04:19:35;102973.13;;;11.90;76.96
57562;BME280;43397;51.530;5.974;2023-02-04T04:22:00;102977.47;;;11.85;76.54
57562;BME280;43397;51.530;5.974;2023-02-04T04:24:27;102968.13;;;11.63;77.20
57562;BME280;43397;51.530;5.974;2023-02-04T04:26:53;102970.69;;;11.60;78.23
57562;BME280;43397;51.530;5.974;2023-02-04T04:29:19;102970.00;;;11.69;77.55
57562;BME280;43397;51.530;5.974;2023-02-04T04:31:44;102967.31;;;11.67;77.59
57562;BME280;43397;51.530;5.974;2023-02-04T04:34:10;102966.63;;;11.78;76.59
57562;BME280;43397;51.530;5.974;2023-02-04T04:36:36;102980.88;;;11.78;77.14
57562;BME280;43397;51.530;5.974;2023-02-04T04:39:03;102977.31;;;11.79;77.43
57562;BME280;43397;51.530;5.974;2023-02-04T04:41:30;102982.78;;;11.85;77.03
57562;BME280;43397;51.530;5.974;2023-02-04T04:43:55;102982.16;;;11.97;76.74
57562;BME280;43397;51.530;5.974;2023-02-04T04:46:21;102982.28;;;12.03;76.62
57562;BME280;43397;51.530;5.974;2023-02-04T04:48:47;102994.22;;;12.22;75.74
57562;BME280;43397;51.530;5.974;2023-02-04T04:51:12;102990.44;;;12.12;76.21
57562;BME280;43397;51.530;5.974;2023-02-04T04:53:38;102988.75;;;12.16;75.66
57562;BME280;43397;51.530;5.974;2023-02-04T04:56:04;102984.41;;;12.21;76.08
57562;BME280;43397;51.530;5.974;2023-02-04T04:58:31;102980.63;;;12.10;76.52
57562;BME280;43397;51.530;5.974;2023-02-04T05:00:57;102979.78;;;12.12;76.03
57562;BME280;43397;51.530;5.974;2023-02-04T05:03:22;102974.47;;;12.12;76.42
57562;BME280;43397;51.530;5.974;2023-02-04T05:05:48;102985.75;;;11.98;76.65
57562;BME280;43397;51.530;5.974;2023-02-04T05:08:14;102981.31;;;12.00;76.74
57562;BME280;43397;51.530;5.974;2023-02-04T05:10:40;102983.72;;;11.87;77.56
57562;BME280;43397;51.530;5.974;2023-02-04T05:13:06;102989.97;;;11.88;77.74
57562;BME280;43397;51.530;5.974;2023-02-04T05:15:33;102991.88;;;11.93;77.23
57562;BME280;43397;51.530;5.974;2023-02-04T05:17:58;102998.16;;;11.97;76.93
57562;BME280;43397;51.530;5.974;2023-02-04T05:20:24;103000.66;;;11.89;77.13
57562;BME280;43397;51.530;5.974;2023-02-04T05:22:50;103006.00;;;11.91;76.57
57562;BME280;43397;51.530;5.974;2023-02-04T05:25:16;103009.25;;;11.76;77.55
57562;BME280;43397;51.530;5.974;2023-02-04T05:27:42;103008.41;;;11.79;77.16
57562;BME280;43397;51.530;5.974;2023-02-04T05:30:09;103010.88;;;11.69;76.94
57562;BME280;43397;51.530;5.974;2023-02-04T05:32:37;103014.47;;;11.71;77.11
57562;BME280;43397;51.530;5.974;2023-02-04T05:35:03;103018.72;;;11.63;77.42
57562;BME280;43397;51.530;5.974;2023-02-04T05:37:29;103024.94;;;11.64;76.97
57562;BME280;43397;51.530;5.974;2023-02-04T05:39:55;103014.25;;;11.61;76.93
57562;BME280;43397;51.530;5.974;2023-02-04T05:42:20;103018.25;;;11.83;76.87
57562;BME280;43397;51.530;5.974;2023-02-04T05:44:46;103025.13;;;11.73;77.24
57562;BME280;43397;51.530;5.974;2023-02-04T05:47:12;103035.78;;;11.71;76.91
57562;BME280;43397;51.530;5.974;2023-02-04T05:49:39;103037.75;;;11.82;76.96
57562;BME280;43397;51.530;5.974;2023-02-04T05:52:04;103047.88;;;11.97;76.94
57562;BME280;43397;51.530;5.974;2023-02-04T05:54:30;103044.25;;;11.91;76.69
57562;BME280;43397;51.530;5.974;2023-02-04T05:56:56;103041.59;;;11.93;77.12
57562;BME280;43397;51.530;5.974;2023-02-04T05:59:22;103045.97;;;11.89;77.67
57562;BME280;43397;51.530;5.974;2023-02-04T06:01:48;103049.72;;;11.99;77.13
57562;BME280;43397;51.530;5.974;2023-02-04T06:04:13;103047.19;;;12.05;77.29
57562;BME280;43397;51.530;5.974;2023-02-04T06:06:40;103055.41;;;12.16;76.91
57562;BME280;43397;51.530;5.974;2023-02-04T06:09:06;103054.69;;;12.25;76.57
57562;BME280;43397;51.530;5.974;2023-02-04T06:11:32;103056.38;;;12.21;76.86
57562;BME280;43397;51.530;5.974;2023-02-04T06:13:58;103050.13;;;12.19;76.70
57562;BME280;43397;51.530;5.974;2023-02-04T06:16:23;103051.97;;;12.23;76.52
57562;BME280;43397;51.530;5.974;2023-02-04T06:18:49;103052.75;;;12.16;76.88
57562;BME280;43397;51.530;5.974;2023-02-04T06:21:15;103063.44;;;12.18;76.97
57562;BME280;43397;51.530;5.974;2023-02-04T06:23:42;103061.72;;;12.20;77.20
57562;BME280;43397;51.530;5.974;2023-02-04T06:26:08;103059.28;;;12.32;76.81
57562;BME280;43397;51.530;5.974;2023-02-04T06:28:34;103055.97;;;12.45;76.46
57562;BME280;43397;51.530;5.974;2023-02-04T06:30:59;103061.97;;;12.33;77.19
57562;BME280;43397;51.530;5.974;2023-02-04T06:33:25;103053.19;;;12.38;77.10
57562;BME280;43397;51.530;5.974;2023-02-04T06:35:51;103057.91;;;12.08;78.02
57562;BME280;43397;51.530;5.974;2023-02-04T06:38:16;103063.44;;;12.18;77.88
57562;BME280;43397;51.530;5.974;2023-02-04T06:40:44;103069.00;;;12.28;78.00
57562;BME280;43397;51.530;5.974;2023-02-04T06:43:09;103066.28;;;12.27;78.35
57562;BME280;43397;51.530;5.974;2023-02-04T06:45:35;103074.44;;;12.34;77.64
57562;BME280;43397;51.530;5.974;2023-02-04T06:48:01;103085.09;;;12.33;78.03
57562;BME280;43397;51.530;5.974;2023-02-04T06:50:26;103071.75;;;12.33;78.02
57562;BME280;43397;51.530;5.974;2023-02-04T06:52:52;103085.09;;;12.33;77.95
57562;BME280;43397;51.530;5.974;2023-02-04T06:55:18;103091.13;;;12.26;78.00
57562;BME280;43397;51.530;5.974;2023-02-04T06:57:45;103094.78;;;12.29;78.07
57562;BME280;43397;51.530;5.974;2023-02-04T07:00:12;103090.78;;;12.51;77.18
57562;BME280;43397;51.530;5.974;2023-02-04T07:02:37;103095.34;;;12.57;76.58
57562;BME280;43397;51.530;5.974;2023-02-04T07:05:03;103088.81;;;12.43;76.69
57562;BME280;43397;51.530;5.974;2023-02-04T07:07:29;103096.69;;;12.35;77.22
57562;BME280;43397;51.530;5.974;2023-02-04T07:09:55;103093.66;;;12.18;78.41
57562;BME280;43397;51.530;5.974;2023-02-04T07:12:21;103108.91;;;12.25;78.42
57562;BME280;43397;51.530;5.974;2023-02-04T07:14:48;103110.41;;;12.12;79.11
57562;BME280;43397;51.530;5.974;2023-02-04T07:17:14;103112.47;;;11.86;80.81
57562;BME280;43397;51.530;5.974;2023-02-04T07:19:39;103123.00;;;12.18;79.92
57562;BME280;43397;51.530;5.974;2023-02-04T07:22:05;103116.16;;;12.31;78.82
57562;BME280;43397;51.530;5.974;2023-02-04T07:24:31;103122.25;;;12.25;78.65
57562;BME280;43397;51.530;5.974;2023-02-04T07:26:56;103126.88;;;12.32;79.16
57562;BME280;43397;51.530;5.974;2023-02-04T07:29:22;103123.38;;;12.37;78.66
57562;BME280;43397;51.530;5.974;2023-02-04T07:31:49;103127.91;;;12.41;78.87
57562;BME280;43397;51.530;5.974;2023-02-04T07:34:15;103131.03;;;12.20;79.75
57562;BME280;43397;51.530;5.974;2023-02-04T07:36:41;103136.34;;;12.20;80.21
57562;BME280;43397;51.530;5.974;2023-02-04T07:39:07;103139.97;;;12.22;80.40
57562;BME280;43397;51.530;5.974;2023-02-04T07:41:33;103145.47;;;11.90;82.23
57562;BME280;43397;51.530;5.974;2023-02-04T07:43:58;103143.88;;;12.00;82.05
57562;BME280;43397;51.530;5.974;2023-02-04T07:46:24;103150.88;;;12.34;80.91
57562;BME280;43397;51.530;5.974;2023-02-04T07:48:51;103146.69;;;12.47;79.99
57562;BME280;43397;51.530;5.974;2023-02-04T07:51:17;103147.63;;;12.49;79.96
57562;BME280;43397;51.530;5.974;2023-02-04T07:53:43;103155.34;;;12.35;81.01
57562;BME280;43397;51.530;5.974;2023-02-04T07:56:08;103152.06;;;12.48;80.48
57562;BME280;43397;51.530;5.974;2023-02-04T07:58:34;103154.25;;;12.69;79.93
57562;BME280;43397;51.530;5.974;2023-02-04T08:00:59;103155.84;;;12.60;80.49
57562;BME280;43397;51.530;5.974;2023-02-04T08:03:25;103156.13;;;12.72;79.93
57562;BME280;43397;51.530;5.974;2023-02-04T08:05:53;103164.41;;;12.87;79.11
57562;BME280;43397;51.530;5.974;2023-02-04T08:08:19;103164.66;;;13.01;78.96
57562;BME280;43397;51.530;5.974;2023-02-04T08:10:45;103166.88;;;12.78;79.31
57562;BME280;43397;51.530;5.974;2023-02-04T08:13:11;103179.47;;;12.84;79.99
57562;BME280;43397;51.530;5.974;2023-02-04T08:15:37;103177.97;;;12.98;79.52
57562;BME280;43397;51.530;5.974;2023-02-04T08:18:03;103173.59;;;13.03;78.81
57562;BME280;43397;51.530;5.974;2023-02-04T08:20:29;103172.84;;;13.09;79.34
57562;BME280;43397;51.530;5.974;2023-02-04T08:22:56;103178.28;;;13.16;79.40
57562;BME280;43397;51.530;5.974;2023-02-04T08:25:21;103178.56;;;13.29;79.17
57562;BME280;43397;51.530;5.974;2023-02-04T08:27:47;103185.97;;;13.00;80.14
57562;BME280;43397;51.530;5.974;2023-02-04T08:30:13;103188.50;;;13.39;78.39
57562;BME280;43397;51.530;5.974;2023-02-04T08:32:39;103188.28;;;13.77;77.02
57562;BME280;43397;51.530;5.974;2023-02-04T08:35:06;103198.69;;;13.60;77.73
57562;BME280;43397;51.530;5.974;2023-02-04T08:37:32;103203.00;;;13.52;77.83
57562;BME280;43397;51.530;5.974;2023-02-04T08:39:59;103202.63;;;13.84;77.29
57562;BME280;43397;51.530;5.974;2023-02-04T08:42:25;103201.03;;;13.95;76.68
57562;BME280;43397;51.530;5.974;2023-02-04T08:44:51;103198.47;;;14.03;75.35
57562;BME280;43397;51.530;5.974;2023-02-04T08:47:16;103201.97;;;14.00;75.95
57562;BME280;43397;51.530;5.974;2023-02-04T08:49:42;103201.34;;;14.16;75.68
57562;BME280;43397;51.530;5.974;2023-02-04T08:52:08;103212.91;;;14.14;75.27
57562;BME280;43397;51.530;5.974;2023-02-04T08:54:36;103209.56;;;14.29;75.44
57562;BME280;43397;51.530;5.974;2023-02-04T08:57:03;103219.47;;;14.36;75.33
57562;BME280;43397;51.530;5.974;2023-02-04T08:59:32;103220.94;;;14.14;75.00
57562;BME280;43397;51.530;5.974;2023-02-04T09:01:58;103223.97;;;14.40;74.80
57562;BME280;43397;51.530;5.974;2023-02-04T09:04:23;103226.69;;;14.43;74.62
57562;BME280;43397;51.530;5.974;2023-02-04T09:06:49;103213.59;;;14.62;73.94
57562;BME280;43397;51.530;5.974;2023-02-04T09:09:15;103230.53;;;14.59;73.46
57562;BME280;43397;51.530;5.974;2023-02-04T09:11:41;103226.94;;;14.60;73.46
57562;BME280;43397;51.530;5.974;2023-02-04T09:14:09;103226.13;;;14.64;73.40
57562;BME280;43397;51.530;5.974;2023-02-04T09:16:35;103225.34;;;14.73;73.82
57562;BME280;43397;51.530;5.974;2023-02-04T09:19:01;103230.78;;;14.82;71.69
57562;BME280;43397;51.530;5.974;2023-02-04T09:21:27;103230.94;;;14.96;72.38
57562;BME280;43397;51.530;5.974;2023-02-04T09:23:53;103227.44;;;14.98;72.37
57562;BME280;43397;51.530;5.974;2023-02-04T09:26:19;103227.06;;;14.68;72.34
57562;BME280;43397;51.530;5.974;2023-02-04T09:28:45;103231.84;;;14.98;72.60
57562;BME280;43397;51.530;5.974;2023-02-04T09:31:12;103231.88;;;14.96;72.40
57562;BME280;43397;51.530;5.974;2023-02-04T09:33:38;103233.63;;;14.96;73.37
57562;BME280;43397;51.530;5.974;2023-02-04T09:36:04;103238.25;;;15.09;71.82
57562;BME280;43397;51.530;5.974;2023-02-04T09:38:29;103228.16;;;14.84;74.19
57562;BME280;43397;51.530;5.974;2023-02-04T09:40:57;103225.38;;;15.60;70.53
57562;BME280;43397;51.530;5.974;2023-02-04T09:43:26;103222.47;;;15.38;68.77
57562;BME280;43397;51.530;5.974;2023-02-04T09:45:52;103230.69;;;15.57;70.54
57562;BME280;43397;51.530;5.974;2023-02-04T09:48:20;103227.06;;;15.52;70.12
57562;BME280;43397;51.530;5.974;2023-02-04T09:50:46;103228.28;;;15.83;69.09
57562;BME280;43397;51.530;5.974;2023-02-04T09:53:15;103238.13;;;15.86;68.58
57562;BME280;43397;51.530;5.974;2023-02-04T09:55:44;103237.41;;;16.10;66.89
57562;BME280;43397;51.530;5.974;2023-02-04T09:58:13;103239.31;;;16.28;67.34
57562;BME280;43397;51.530;5.974;2023-02-04T10:00:39;103242.03;;;16.34;67.43
57562;BME280;43397;51.530;5.974;2023-02-04T10:03:13;103245.72;;;16.53;65.04
57562;BME280;43397;51.530;5.974;2023-02-04T10:05:40;103246.56;;;16.45;63.93
57562;BME280;43397;51.530;5.974;2023-02-04T10:08:06;103241.31;;;16.64;65.16
57562;BME280;43397;51.530;5.974;2023-02-04T10:10:32;103252.13;;;16.79;63.69
57562;BME280;43397;51.530;5.974;2023-02-04T10:12:59;103250.41;;;16.92;64.34
57562;BME280;43397;51.530;5.974;2023-02-04T10:15:26;103259.34;;;16.90;63.24
57562;BME280;43397;51.530;5.974;2023-02-04T10:17:57;103247.63;;;16.77;61.93
57562;BME280;43397;51.530;5.974;2023-02-04T10:20:25;103253.97;;;16.88;62.94
57562;BME280;43397;51.530;5.974;2023-02-04T10:22:53;103255.69;;;16.77;66.23
57562;BME280;43397;51.530;5.974;2023-02-04T10:25:22;103246.81;;;16.92;62.13
57562;BME280;43397;51.530;5.974;2023-02-04T10:27:50;103257.66;;;17.25;62.52
57562;BME280;43397;51.530;5.974;2023-02-04T10:30:19;103259.50;;;17.31;61.36
57562;BME280;43397;51.530;5.974;2023-02-04T10:32:45;103264.91;;;17.69;61.15
57562;BME280;43397;51.530;5.974;2023-02-04T10:35:13;103255.94;;;17.55;59.74
57562;BME280;43397;51.530;5.974;2023-02-04T10:37:39;103257.47;;;16.76;61.55
57562;BME280;43397;51.530;5.974;2023-02-04T10:40:24;103252.75;;;16.32;63.35
57562;BME280;43397;51.530;5.974;2023-02-04T10:42:51;103259.16;;;15.46;67.05
57562;BME280;43397;51.530;5.974;2023-02-04T10:45:24;103262.03;;;16.83;62.82
57562;BME280;43397;51.530;5.974;2023-02-04T10:47:50;103271.22;;;17.93;59.95
57562;BME280;43397;51.530;5.974;2023-02-04T10:50:19;103257.63;;;17.18;58.64
57562;BME280;43397;51.530;5.974;2023-02-04T10:52:48;103268.44;;;17.32;59.24
57562;BME280;43397;51.530;5.974;2023-02-04T10:55:17;103256.84;;;17.76;60.93
57562;BME280;43397;51.530;5.974;2023-02-04T10:57:45;103248.75;;;18.22;61.95
57562;BME280;43397;51.530;5.974;2023-02-04T11:00:15;103255.91;;;18.38;57.19
57562;BME280;43397;51.530;5.974;2023-02-04T11:02:43;103259.44;;;18.54;56.94
57562;BME280;43397;51.530;5.974;2023-02-04T11:05:14;103253.94;;;18.93;56.65
57562;BME280;43397;51.530;5.974;2023-02-04T11:07:41;103256.19;;;19.69;56.15
57562;BME280;43397;51.530;5.974;2023-02-04T11:10:16;103257.38;;;19.24;52.27
57562;BME280;43397;51.530;5.974;2023-02-04T11:12:44;103258.97;;;19.51;54.68
57562;BME280;43397;51.530;5.974;2023-02-04T11:15:39;103255.41;;;19.46;57.67
57562;BME280;43397;51.530;5.974;2023-02-04T11:18:08;103262.25;;;19.96;56.10
57562;BME280;43397;51.530;5.974;2023-02-04T11:20:34;103256.97;;;19.82;56.27
57562;BME280;43397;51.530;5.974;2023-02-04T11:23:27;103251.09;;;19.20;56.53
57562;BME280;43397;51.530;5.974;2023-02-04T11:26:05;103245.41;;;19.63;56.16
57562;BME280;43397;51.530;5.974;2023-02-04T11:28:43;103260.59;;;19.77;53.77
57562;BME280;43397;51.530;5.974;2023-02-04T11:31:13;103255.25;;;19.73;51.46
57562;BME280;43397;51.530;5.974;2023-02-04T11:33:41;103256.66;;;18.93;54.80
57562;BME280;43397;51.530;5.974;2023-02-04T11:36:09;103246.56;;;19.25;54.24
57562;BME280;43397;51.530;5.974;2023-02-04T11:38:36;103251.88;;;19.39;53.41
57562;BME280;43397;51.530;5.974;2023-02-04T11:41:04;103251.34;;;18.53;55.71
57562;BME280;43397;51.530;5.974;2023-02-04T11:43:32;103242.34;;;18.63;55.66
57562;BME280;43397;51.530;5.974;2023-02-04T11:46:04;103253.13;;;18.61;55.23
57562;BME280;43397;51.530;5.974;2023-02-04T11:48:34;103253.16;;;18.58;55.82
57562;BME280;43397;51.530;5.974;2023-02-04T11:51:02;103253.25;;;18.17;59.30
57562;BME280;43397;51.530;5.974;2023-02-04T11:53:29;103252.28;;;18.45;59.03
57562;BME280;43397;51.530;5.974;2023-02-04T11:55:55;103247.84;;;18.24;56.09
57562;BME280;43397;51.530;5.974;2023-02-04T11:58:22;103262.22;;;18.06;52.44
57562;BME280;43397;51.530;5.974;2023-02-04T12:00:49;103254.13;;;18.16;55.35
57562;BME280;43397;51.530;5.974;2023-02-04T12:03:23;103250.59;;;17.92;57.33
57562;BME280;43397;51.530;5.974;2023-02-04T12:05:50;103256.84;;;17.96;55.03
57562;BME280;43397;51.530;5.974;2023-02-04T12:08:25;103255.91;;;18.29;54.47
57562;BME280;43397;51.530;5.974;2023-02-04T12:11:01;103256.84;;;18.06;53.30
57562;BME280;43397;51.530;5.974;2023-02-04T12:13:29;103257.75;;;17.92;50.92
57562;BME280;43397;51.530;5.974;2023-02-04T12:15:58;103263.16;;;17.93;55.12
57562;BME280;43397;51.530;5.974;2023-02-04T12:18:24;103255.97;;;17.87;55.20
57562;BME280;43397;51.530;5.974;2023-02-04T12:20:50;103256.81;;;17.54;52.78
57562;BME280;43397;51.530;5.974;2023-02-04T12:23:16;103262.22;;;17.71;53.78
57562;BME280;43397;51.530;5.974;2023-02-04T12:25:41;103260.44;;;17.93;52.65
57562;BME280;43397;51.530;5.974;2023-02-04T12:28:07;103258.63;;;17.44;55.02
57562;BME280;43397;51.530;5.974;2023-02-04T12:30:34;103265.81;;;17.78;52.60
57562;BME280;43397;51.530;5.974;2023-02-04T12:33:00;103264.03;;;17.87;52.27
57562;BME280;43397;51.530;5.974;2023-02-04T12:35:26;103266.75;;;17.97;51.72
57562;BME280;43397;51.530;5.974;2023-02-04T12:37:51;103263.81;;;18.94;50.82
57562;BME280;43397;51.530;5.974;2023-02-04T12:40:19;103261.72;;;20.47;46.44
57562;BME280;43397;51.530;5.974;2023-02-04T12:42:45;103268.31;;;20.99;45.00
57562;BME280;43397;51.530;5.974;2023-02-04T12:45:12;103265.16;;;20.64;46.02
57562;BME280;43397;51.530;5.974;2023-02-04T12:47:41;103268.03;;;21.20;45.52